createdAt,value
2023-04-26T00:01:58.738Z,1.83
2023-04-26T00:04:25.874Z,1.25
2023-04-26T00:06:52.773Z,1.27
2023-04-26T00:09:19.707Z,1.45
2023-04-26T00:11:46.677Z,2.40
2023-04-26T00:14:13.724Z,1.70
2023-04-26T00:16:40.490Z,1.95
2023-04-26T00:19:07.282Z,1.35
2023-04-26T00:21:34.123Z,1.73
2023-04-26T00:24:00.892Z,1.42
2023-04-26T00:26:27.684Z,1.45
2023-04-26T00:28:54.806Z,2.28
2023-04-26T00:31:21.887Z,3.05
2023-04-26T00:33:48.731Z,2.45
2023-04-26T00:36:19.137Z,1.35
2023-04-26T00:38:46.795Z,1.67
2023-04-26T00:41:13.869Z,1.65
2023-04-26T00:43:41.094Z,1.65
2023-04-26T00:46:11.368Z,1.77
2023-04-26T00:48:38.205Z,2.63
2023-04-26T00:51:06.082Z,2.15
2023-04-26T00:53:34.147Z,1.95
2023-04-26T00:56:01.038Z,1.90
2023-04-26T00:58:27.985Z,1.50
2023-04-26T01:00:55.314Z,1.90
2023-04-26T01:03:22.182Z,2.00
2023-04-26T01:05:49.138Z,2.40
2023-04-26T01:08:20.610Z,1.88
2023-04-26T01:10:48.535Z,1.92
2023-04-26T01:13:15.636Z,2.28
2023-04-26T01:15:48.731Z,1.92
2023-04-26T01:18:15.588Z,1.60
2023-04-26T01:20:43.053Z,1.73
2023-04-26T01:23:10.489Z,1.67
2023-04-26T01:25:38.827Z,1.70
2023-04-26T01:28:05.643Z,2.45
2023-04-26T01:30:32.515Z,1.70
2023-04-26T01:33:03.534Z,1.90
2023-04-26T01:35:30.597Z,2.00
2023-04-26T01:37:57.410Z,2.05
2023-04-26T01:40:24.292Z,2.05
2023-04-26T01:42:51.131Z,1.92
2023-04-26T01:45:18.102Z,2.03
2023-04-26T01:48:03.830Z,1.90
2023-04-26T01:50:32.535Z,1.90
2023-04-26T01:52:59.290Z,2.55
2023-04-26T01:55:26.140Z,2.38
2023-04-26T01:57:52.963Z,1.95
2023-04-26T02:00:20.377Z,1.50
2023-04-26T02:02:49.441Z,2.50
2023-04-26T02:05:16.529Z,2.13
2023-04-26T02:07:43.337Z,1.73
2023-04-26T02:10:10.474Z,1.88
2023-04-26T02:12:37.335Z,1.92
2023-04-26T02:15:04.790Z,1.75
2023-04-26T02:17:31.893Z,1.73
2023-04-26T02:19:58.761Z,1.63
2023-04-26T02:22:25.658Z,1.83
2023-04-26T02:24:52.969Z,1.23
2023-04-26T02:27:20.017Z,1.58
2023-04-26T02:29:47.308Z,1.48
2023-04-26T02:32:14.448Z,2.05
2023-04-26T02:34:41.723Z,2.03
2023-04-26T02:37:08.993Z,1.52
2023-04-26T02:39:36.149Z,1.60
2023-04-26T02:42:03.232Z,1.40
2023-04-26T02:44:31.043Z,1.73
2023-04-26T02:46:58.204Z,1.20
2023-04-26T02:49:25.118Z,1.40
2023-04-26T02:51:52.052Z,1.30
2023-04-26T02:54:19.065Z,1.17
2023-04-26T02:56:45.983Z,1.08
2023-04-26T02:59:12.779Z,1.70
2023-04-26T03:01:39.633Z,1.48
2023-04-26T03:04:06.978Z,1.23
2023-04-26T03:06:35.491Z,0.80
2023-04-26T03:09:02.330Z,1.00
2023-04-26T03:11:29.199Z,1.10
2023-04-26T03:13:56.766Z,1.60
2023-04-26T03:16:23.870Z,1.33
2023-04-26T03:18:51.040Z,1.20
2023-04-26T03:21:18.059Z,1.25
2023-04-26T03:23:45.318Z,0.90
2023-04-26T03:26:13.075Z,0.82
2023-04-26T03:28:41.666Z,0.90
2023-04-26T03:31:08.472Z,0.90
2023-04-26T03:33:35.424Z,1.00
2023-04-26T03:36:02.365Z,0.77
2023-04-26T03:38:29.254Z,1.00
2023-04-26T03:40:55.998Z,0.93
2023-04-26T03:43:23.711Z,0.77
2023-04-26T03:45:51.059Z,1.00
2023-04-26T03:48:17.897Z,1.10
2023-04-26T03:50:45.917Z,1.73
2023-04-26T03:53:12.918Z,1.13
2023-04-26T03:55:40.850Z,1.00
2023-04-26T03:58:08.100Z,1.63
2023-04-26T04:00:37.507Z,1.40
2023-04-26T04:03:05.131Z,1.08
2023-04-26T04:05:32.405Z,1.70
2023-04-26T04:07:59.578Z,1.30
2023-04-26T04:10:26.454Z,1.13
2023-04-26T04:12:54.205Z,1.25
2023-04-26T04:15:21.313Z,1.42
2023-04-26T04:17:49.196Z,1.50
2023-04-26T04:20:16.364Z,1.10
2023-04-26T04:22:43.669Z,1.20
2023-04-26T04:25:10.620Z,1.20
2023-04-26T04:27:38.711Z,1.20
2023-04-26T04:30:07.798Z,1.40
2023-04-26T04:32:36.076Z,1.65
2023-04-26T04:35:03.288Z,1.50
2023-04-26T04:37:32.881Z,1.33
2023-04-26T04:40:00.253Z,1.48
2023-04-26T04:42:28.140Z,1.38
2023-04-26T04:44:57.578Z,1.30
2023-04-26T04:47:25.783Z,1.48
2023-04-26T04:49:53.813Z,1.25
2023-04-26T04:52:21.842Z,1.25
2023-04-26T04:54:48.930Z,1.10
2023-04-26T04:57:16.767Z,1.67
2023-04-26T04:59:45.092Z,2.53
2023-04-26T05:02:12.217Z,0.90
2023-04-26T05:04:39.533Z,1.67
2023-04-26T05:07:06.880Z,1.05
2023-04-26T05:09:35.290Z,1.30
2023-04-26T05:12:03.376Z,1.13
2023-04-26T05:14:31.244Z,1.20
2023-04-26T05:16:58.480Z,0.90
2023-04-26T05:19:26.176Z,1.20
2023-04-26T05:21:53.194Z,2.40
2023-04-26T05:24:20.026Z,1.10
2023-04-26T05:26:46.954Z,1.20
2023-04-26T05:29:20.185Z,1.60
2023-04-26T05:31:59.030Z,1.25
2023-04-26T05:34:51.976Z,1.67
2023-04-26T05:37:18.835Z,0.95
2023-04-26T05:39:45.838Z,1.45
2023-04-26T05:42:12.792Z,1.50
2023-04-26T05:44:40.706Z,1.20
2023-04-26T05:47:08.200Z,1.30
2023-04-26T05:49:34.968Z,2.63
2023-04-26T05:52:03.562Z,1.08
2023-04-26T05:54:30.630Z,1.35
2023-04-26T05:56:59.129Z,1.80
2023-04-26T05:59:27.842Z,1.30
2023-04-26T06:01:54.843Z,1.52
2023-04-26T06:04:21.932Z,1.50
2023-04-26T06:07:01.360Z,1.13
2023-04-26T06:09:28.278Z,1.27
2023-04-26T06:11:55.088Z,1.40
2023-04-26T06:14:29.848Z,1.48
2023-04-26T06:16:59.327Z,1.55
2023-04-26T06:19:28.173Z,1.95
2023-04-26T06:21:57.067Z,1.60
2023-04-26T06:24:25.800Z,1.50
2023-04-26T06:26:52.797Z,1.65
2023-04-26T06:29:21.094Z,1.17
2023-04-26T06:31:48.428Z,1.92
2023-04-26T06:34:15.378Z,1.20
2023-04-26T06:36:42.553Z,1.15
2023-04-26T06:39:10.926Z,1.00
2023-04-26T06:41:38.815Z,1.15
2023-04-26T06:44:05.602Z,0.95
2023-04-26T06:46:32.782Z,1.00
2023-04-26T06:48:59.676Z,0.80
2023-04-26T06:51:26.988Z,0.88
2023-04-26T06:53:53.974Z,1.00
2023-04-26T06:56:21.058Z,1.23
2023-04-26T06:59:02.648Z,1.42
2023-04-26T07:01:29.867Z,2.17
2023-04-26T07:03:59.669Z,1.30
2023-04-26T07:06:26.619Z,1.30
2023-04-26T07:08:53.671Z,0.90
2023-04-26T07:11:21.645Z,1.42
2023-04-26T07:13:49.138Z,1.10
2023-04-26T07:16:15.938Z,0.90
2023-04-26T07:18:42.915Z,0.90
2023-04-26T07:21:09.791Z,1.30
2023-04-26T07:23:36.656Z,1.33
2023-04-26T07:26:04.464Z,0.95
2023-04-26T07:28:33.963Z,1.10
2023-04-26T07:31:01.526Z,1.30
2023-04-26T07:33:30.429Z,2.00
2023-04-26T07:35:58.730Z,1.23
2023-04-26T07:38:25.578Z,1.13
2023-04-26T07:40:52.830Z,1.58
2023-04-26T07:43:20.443Z,1.80
2023-04-26T07:45:47.319Z,1.30
2023-04-26T07:48:14.188Z,1.35
2023-04-26T07:50:41.144Z,1.50
2023-04-26T07:53:08.130Z,1.17
2023-04-26T07:55:34.949Z,1.02
2023-04-26T07:58:02.461Z,1.95
2023-04-26T08:00:29.414Z,1.85
2023-04-26T08:02:56.643Z,1.70
2023-04-26T08:05:23.754Z,1.10
2023-04-26T08:07:50.826Z,1.23
2023-04-26T08:10:17.885Z,1.17
2023-04-26T08:12:44.616Z,1.17
2023-04-26T08:15:12.072Z,1.38
2023-04-26T08:17:39.069Z,1.25
2023-04-26T08:20:06.992Z,0.90
2023-04-26T08:22:33.793Z,1.50
2023-04-26T08:25:00.875Z,0.82
2023-04-26T08:27:28.165Z,1.50
2023-04-26T08:29:55.023Z,1.20
2023-04-26T08:32:22.205Z,1.98
2023-04-26T08:34:49.072Z,1.30
2023-04-26T08:37:15.891Z,1.83
2023-04-26T08:39:42.694Z,1.88
2023-04-26T08:42:16.719Z,1.40
2023-04-26T08:44:44.157Z,1.33
2023-04-26T08:47:37.498Z,1.42
2023-04-26T08:50:04.777Z,1.07
2023-04-26T08:52:31.952Z,1.65
2023-04-26T08:54:59.489Z,1.30
2023-04-26T08:57:26.776Z,1.80
2023-04-26T08:59:53.799Z,1.20
2023-04-26T09:02:21.653Z,1.42
2023-04-26T09:04:49.116Z,1.27
2023-04-26T09:07:27.264Z,1.33
2023-04-26T09:09:54.043Z,1.20
2023-04-26T09:12:21.311Z,1.58
2023-04-26T09:14:48.220Z,1.40
2023-04-26T09:17:38.041Z,1.45
2023-04-26T09:20:25.935Z,2.00
2023-04-26T09:23:09.106Z,1.50
2023-04-26T09:25:36.077Z,1.23
2023-04-26T09:28:03.703Z,1.30
2023-04-26T09:30:31.330Z,1.42
2023-04-26T09:33:06.829Z,1.80
2023-04-26T09:35:33.785Z,1.52
2023-04-26T09:38:09.690Z,1.35
2023-04-26T09:40:42.648Z,1.70
2023-04-26T09:43:13.133Z,1.65
2023-04-26T09:45:56.865Z,1.50
2023-04-26T09:48:30.704Z,1.92
2023-04-26T09:51:10.186Z,1.95
2023-04-26T09:53:41.317Z,1.88
2023-04-26T09:56:18.932Z,1.67
2023-04-26T09:59:00.633Z,1.75
2023-04-26T10:01:31.226Z,1.60
2023-04-26T10:03:58.429Z,1.80
2023-04-26T10:06:25.695Z,1.50
2023-04-26T10:08:52.731Z,2.80
2023-04-26T10:11:19.746Z,1.50
2023-04-26T10:13:46.539Z,1.15
2023-04-26T10:16:13.432Z,1.63
2023-04-26T10:18:40.612Z,1.63
2023-04-26T10:21:35.293Z,1.58
2023-04-26T10:24:02.906Z,1.40
2023-04-26T10:26:56.956Z,1.25
2023-04-26T10:29:24.802Z,1.70
2023-04-26T10:32:10.622Z,1.63
2023-04-26T10:34:37.619Z,1.13
2023-04-26T10:37:14.746Z,1.42
2023-04-26T10:39:42.527Z,1.75
2023-04-26T10:42:27.392Z,1.63
2023-04-26T10:45:00.890Z,1.65
2023-04-26T10:47:37.539Z,1.77
2023-04-26T10:50:11.106Z,1.38
2023-04-26T10:53:05.879Z,1.38
2023-04-26T10:55:51.499Z,1.20
2023-04-26T10:58:28.225Z,1.50
2023-04-26T11:01:04.949Z,2.17
2023-04-26T11:03:32.072Z,1.58
2023-04-26T11:05:59.130Z,1.23
2023-04-26T11:08:31.735Z,1.75
2023-04-26T11:11:02.397Z,3.00
2023-04-26T11:13:32.638Z,1.23
2023-04-26T11:16:07.257Z,1.77
2023-04-26T11:18:34.757Z,1.40
2023-04-26T11:21:01.595Z,1.38
2023-04-26T11:23:29.634Z,1.20
2023-04-26T11:26:00.325Z,1.17
2023-04-26T11:28:27.159Z,1.50
2023-04-26T11:30:54.157Z,1.92
2023-04-26T11:33:24.652Z,1.33
2023-04-26T11:35:52.325Z,1.27
2023-04-26T11:38:22.121Z,1.58
2023-04-26T11:41:02.454Z,2.42
2023-04-26T11:43:32.331Z,1.48
2023-04-26T11:46:02.470Z,1.98
2023-04-26T11:48:30.047Z,1.98
2023-04-26T11:51:00.620Z,1.60
2023-04-26T11:53:40.839Z,1.42
2023-04-26T11:56:20.777Z,1.40
2023-04-26T11:58:48.458Z,1.30
2023-04-26T12:01:41.549Z,2.00
2023-04-26T12:04:10.499Z,1.40
2023-04-26T12:06:44.654Z,1.48
2023-04-26T12:09:12.069Z,2.13
2023-04-26T12:11:39.456Z,1.40
2023-04-26T12:14:07.819Z,1.73
2023-04-26T12:16:37.864Z,1.70
2023-04-26T12:19:06.522Z,1.60
2023-04-26T12:21:43.874Z,1.67
2023-04-26T12:24:29.601Z,2.35
2023-04-26T12:26:56.558Z,1.88
2023-04-26T12:29:23.370Z,1.40
2023-04-26T12:31:50.224Z,1.50
2023-04-26T12:34:17.100Z,2.25
2023-04-26T12:36:44.539Z,1.67
2023-04-26T12:39:13.269Z,1.90
2023-04-26T12:41:41.150Z,1.80
2023-04-26T12:44:08.608Z,1.70
2023-04-26T12:46:36.030Z,1.40
2023-04-26T12:49:03.538Z,1.45
2023-04-26T12:51:31.953Z,1.48
2023-04-26T12:53:59.010Z,1.65
2023-04-26T12:56:25.870Z,1.63
2023-04-26T12:58:52.636Z,1.73
2023-04-26T13:01:19.559Z,1.40
2023-04-26T13:03:46.764Z,1.48
2023-04-26T13:06:13.727Z,1.40
2023-04-26T13:08:41.672Z,1.50
2023-04-26T13:11:08.474Z,1.88
2023-04-26T13:13:43.186Z,1.58
2023-04-26T13:16:12.440Z,1.60
2023-04-26T13:18:40.226Z,1.92
2023-04-26T13:21:07.142Z,2.22
2023-04-26T13:23:33.975Z,1.25
2023-04-26T13:26:00.758Z,2.20
2023-04-26T13:28:27.577Z,1.50
2023-04-26T13:30:55.795Z,1.73
2023-04-26T13:33:22.910Z,2.28
2023-04-26T13:35:49.969Z,1.60
2023-04-26T13:38:17.327Z,1.77
2023-04-26T13:40:44.809Z,1.65
2023-04-26T13:43:11.730Z,1.77
2023-04-26T13:45:38.787Z,1.73
2023-04-26T13:48:05.897Z,1.50
2023-04-26T13:50:32.792Z,1.90
2023-04-26T13:53:00.050Z,1.55
2023-04-26T13:55:26.845Z,1.88
2023-04-26T13:57:53.824Z,1.50
2023-04-26T14:00:21.149Z,1.70
2023-04-26T14:02:48.596Z,1.65
2023-04-26T14:05:16.611Z,1.33
2023-04-26T14:07:43.576Z,1.38
2023-04-26T14:10:10.697Z,1.80
2023-04-26T14:12:37.500Z,1.42
2023-04-26T14:15:06.101Z,1.25
2023-04-26T14:17:33.240Z,1.70
2023-04-26T14:20:00.210Z,1.52
2023-04-26T14:22:27.239Z,1.58
2023-04-26T14:24:54.026Z,1.98
2023-04-26T14:27:20.995Z,1.30
2023-04-26T14:29:47.833Z,1.45
2023-04-26T14:32:14.928Z,1.40
2023-04-26T14:34:42.623Z,2.13
2023-04-26T14:37:09.447Z,1.60
2023-04-26T14:39:37.222Z,1.77
2023-04-26T14:42:04.362Z,1.67
2023-04-26T14:44:31.229Z,2.28
2023-04-26T14:46:58.315Z,1.70
2023-04-26T14:49:25.319Z,1.50
2023-04-26T14:51:53.707Z,1.75
2023-04-26T14:54:21.115Z,1.65
2023-04-26T14:56:48.494Z,1.42
2023-04-26T14:59:15.478Z,1.55
2023-04-26T15:01:42.493Z,1.60
2023-04-26T15:04:09.394Z,1.50
2023-04-26T15:06:36.547Z,1.63
2023-04-26T15:09:04.355Z,1.30
2023-04-26T15:11:31.458Z,1.48
2023-04-26T15:13:58.259Z,1.45
2023-04-26T15:16:25.187Z,2.78
2023-04-26T15:18:52.117Z,1.60
2023-04-26T15:21:21.266Z,2.00
2023-04-26T15:23:48.133Z,3.10
2023-04-26T15:26:14.930Z,9.73
2023-04-26T15:28:41.755Z,2.67
2023-04-26T15:31:09.516Z,3.47
2023-04-26T15:33:36.641Z,1.88
2023-04-26T15:36:03.703Z,1.88
2023-04-26T15:38:30.696Z,1.75
2023-04-26T15:40:59.037Z,1.85
2023-04-26T15:43:25.928Z,1.60
2023-04-26T15:45:53.034Z,1.63
2023-04-26T15:48:19.797Z,1.55
2023-04-26T15:50:46.617Z,1.50
2023-04-26T15:53:13.380Z,1.65
2023-04-26T15:55:40.322Z,2.45
2023-04-26T15:58:07.698Z,1.48
2023-04-26T16:00:36.380Z,1.88
2023-04-26T16:03:03.462Z,1.60
2023-04-26T16:05:31.764Z,2.22
2023-04-26T16:07:59.711Z,2.92
2023-04-26T16:10:26.704Z,2.03
2023-04-26T16:12:53.564Z,1.58
2023-04-26T16:15:20.671Z,1.70
2023-04-26T16:17:47.568Z,1.67
2023-04-26T16:20:15.227Z,2.75
2023-04-26T16:22:45.030Z,1.70
2023-04-26T16:25:12.110Z,1.75
2023-04-26T16:27:38.965Z,1.58
2023-04-26T16:30:06.443Z,1.98
2023-04-26T16:32:34.078Z,1.50
2023-04-26T16:35:01.090Z,1.90
2023-04-26T16:37:28.008Z,1.55
2023-04-26T16:39:55.911Z,2.00
2023-04-26T16:42:22.993Z,1.92
2023-04-26T16:44:49.873Z,1.65
2023-04-26T16:47:16.749Z,3.00
2023-04-26T16:49:43.498Z,3.60
2023-04-26T16:52:10.438Z,2.45
2023-04-26T16:54:37.363Z,3.10
2023-04-26T16:57:04.545Z,2.90
2023-04-26T16:59:31.429Z,2.65
2023-04-26T17:01:58.337Z,3.92
2023-04-26T17:04:26.360Z,4.10
2023-04-26T17:06:54.488Z,3.22
2023-04-26T17:09:21.473Z,1.83
2023-04-26T17:11:49.855Z,2.47
2023-04-26T17:14:16.764Z,2.03
2023-04-26T17:16:43.839Z,1.90
2023-04-26T17:19:10.945Z,1.90
2023-04-26T17:21:37.809Z,2.00
2023-04-26T17:24:04.766Z,1.85
2023-04-26T17:26:31.685Z,2.08
2023-04-26T17:28:58.621Z,2.42
2023-04-26T17:31:25.608Z,1.75
2023-04-26T17:33:52.477Z,2.00
2023-04-26T17:36:19.490Z,2.70
2023-04-26T17:38:46.320Z,2.00
2023-04-26T17:41:13.544Z,2.08
2023-04-26T17:43:40.539Z,2.28
2023-04-26T17:46:07.519Z,2.53
2023-04-26T17:48:34.385Z,1.95
2023-04-26T17:51:01.309Z,2.92
2023-04-26T17:53:28.172Z,2.90
2023-04-26T17:55:55.352Z,2.50
2023-04-26T17:58:24.025Z,2.60
2023-04-26T18:00:50.906Z,2.20
2023-04-26T18:03:17.963Z,2.28
2023-04-26T18:05:45.081Z,2.13
2023-04-26T18:08:11.855Z,2.53
2023-04-26T18:10:38.701Z,3.00
2023-04-26T18:13:05.605Z,3.60
2023-04-26T18:15:32.493Z,2.55
2023-04-26T18:17:59.353Z,2.67
2023-04-26T18:20:26.923Z,3.28
2023-04-26T18:22:53.722Z,2.58
2023-04-26T18:25:20.509Z,2.40
2023-04-26T18:27:47.324Z,2.38
2023-04-26T18:30:14.222Z,2.22
2023-04-26T18:32:41.322Z,2.88
2023-04-26T18:35:09.132Z,2.80
2023-04-26T18:37:36.062Z,2.70
2023-04-26T18:40:04.828Z,2.45
2023-04-26T18:42:31.648Z,2.10
2023-04-26T18:44:59.414Z,2.42
2023-04-26T18:47:26.797Z,2.45
2023-04-26T18:49:53.609Z,2.97
2023-04-26T18:52:20.426Z,2.40
2023-04-26T18:54:47.234Z,2.80
2023-04-26T18:57:14.793Z,2.85
2023-04-26T18:59:41.606Z,2.85
2023-04-26T19:02:08.674Z,2.72
2023-04-26T19:04:35.783Z,2.83
2023-04-26T19:07:02.791Z,2.80
2023-04-26T19:09:39.855Z,2.80
2023-04-26T19:12:17.589Z,2.70
2023-04-26T19:14:44.473Z,2.97
2023-04-26T19:17:11.351Z,3.40
2023-04-26T19:19:38.224Z,3.28
2023-04-26T19:22:05.156Z,3.60
2023-04-26T19:24:31.993Z,3.13
2023-04-26T19:26:58.794Z,3.38
2023-04-26T19:29:25.778Z,3.20
2023-04-26T19:31:52.658Z,3.70
2023-04-26T19:34:20.119Z,3.30
2023-04-26T19:36:47.745Z,4.00
2023-04-26T19:39:16.822Z,3.33
2023-04-26T19:41:44.242Z,3.75
2023-04-26T19:44:13.110Z,4.18
2023-04-26T19:46:41.369Z,4.05
2023-04-26T19:49:08.920Z,4.25
2023-04-26T19:51:39.356Z,4.70
2023-04-26T19:54:06.514Z,4.35
2023-04-26T19:56:33.549Z,5.15
2023-04-26T19:59:01.138Z,4.05
2023-04-26T20:01:30.295Z,4.07
2023-04-26T20:03:57.949Z,4.80
2023-04-26T20:06:25.567Z,4.72
2023-04-26T20:08:53.496Z,4.18
2023-04-26T20:11:20.395Z,4.45
2023-04-26T20:13:48.419Z,4.05
2023-04-26T20:16:15.664Z,4.60
2023-04-26T20:18:43.807Z,5.75
2023-04-26T20:21:15.467Z,4.82
2023-04-26T20:23:43.011Z,4.53
2023-04-26T20:26:11.391Z,5.45
2023-04-26T20:28:42.534Z,5.30
2023-04-26T20:31:09.604Z,5.10
2023-04-26T20:33:36.731Z,5.55
2023-04-26T20:36:04.889Z,6.00
2023-04-26T20:38:32.108Z,5.20
2023-04-26T20:41:00.476Z,5.80
2023-04-26T20:43:30.260Z,5.03
2023-04-26T20:45:57.625Z,4.95
2023-04-26T20:48:26.084Z,5.05
2023-04-26T20:50:58.801Z,5.18
2023-04-26T20:53:25.904Z,5.37
2023-04-26T20:55:53.748Z,4.78
2023-04-26T20:58:20.804Z,4.13
2023-04-26T21:00:55.187Z,4.30
2023-04-26T21:03:22.783Z,4.43
2023-04-26T21:05:49.809Z,5.00
2023-04-26T21:08:16.679Z,5.55
2023-04-26T21:10:43.602Z,3.85
2023-04-26T21:13:10.399Z,5.07
2023-04-26T21:15:37.319Z,4.07
2023-04-26T21:18:04.461Z,4.13
2023-04-26T21:20:31.450Z,4.18
2023-04-26T21:22:58.340Z,3.75
2023-04-26T21:25:25.143Z,4.32
2023-04-26T21:27:51.931Z,3.38
2023-04-26T21:30:18.824Z,3.60
2023-04-26T21:32:45.991Z,3.42
2023-04-26T21:35:13.069Z,4.55
2023-04-26T21:37:39.913Z,4.15
2023-04-26T21:40:08.079Z,4.35
2023-04-26T21:42:34.909Z,4.30
2023-04-26T21:45:01.771Z,4.03
2023-04-26T21:47:28.637Z,4.78
2023-04-26T21:49:55.799Z,4.68
2023-04-26T21:52:22.580Z,5.20
2023-04-26T21:54:50.644Z,4.10
2023-04-26T21:57:21.522Z,4.10
2023-04-26T21:59:50.047Z,4.00
2023-04-26T22:02:17.089Z,4.47
2023-04-26T22:04:44.001Z,4.38
2023-04-26T22:07:10.910Z,4.03
2023-04-26T22:09:37.661Z,5.20
2023-04-26T22:12:04.653Z,4.13
2023-04-26T22:14:31.645Z,3.97
2023-04-26T22:16:58.435Z,3.60
2023-04-26T22:19:25.266Z,3.92
2023-04-26T22:21:53.389Z,3.53
2023-04-26T22:24:21.834Z,3.63
2023-04-26T22:26:48.600Z,4.20
2023-04-26T22:29:15.605Z,4.35
2023-04-26T22:31:42.475Z,3.47
2023-04-26T22:34:09.357Z,3.65
2023-04-26T22:36:36.270Z,4.38
2023-04-26T22:39:03.241Z,3.25
2023-04-26T22:41:30.165Z,3.72
2023-04-26T22:43:57.313Z,4.30
2023-04-26T22:46:24.602Z,3.55
2023-04-26T22:48:51.428Z,3.63
2023-04-26T22:51:18.268Z,3.80
2023-04-26T22:53:45.023Z,3.40
2023-04-26T22:56:11.848Z,3.20
2023-04-26T22:58:38.722Z,3.42
2023-04-26T23:01:05.637Z,3.63
2023-04-26T23:03:35.928Z,3.63
2023-04-26T23:06:06.261Z,3.60
2023-04-26T23:08:33.059Z,2.90
2023-04-26T23:11:00.149Z,3.33
2023-04-26T23:13:27.013Z,3.58
2023-04-26T23:15:53.857Z,3.10
2023-04-26T23:18:20.786Z,3.67
2023-04-26T23:20:47.737Z,3.47
2023-04-26T23:23:14.470Z,4.03
2023-04-26T23:25:42.178Z,3.72
2023-04-26T23:28:09.186Z,3.35
2023-04-26T23:30:36.197Z,3.70
2023-04-26T23:33:03.191Z,3.60
2023-04-26T23:35:30.163Z,4.00
2023-04-26T23:37:57.183Z,3.42
2023-04-26T23:40:24.113Z,3.75
2023-04-26T23:42:51.258Z,3.30
2023-04-26T23:45:19.225Z,3.20
2023-04-26T23:47:46.186Z,3.53
2023-04-26T23:50:13.012Z,3.30
2023-04-26T23:52:39.820Z,3.60
2023-04-26T23:55:08.151Z,3.60
2023-04-26T23:57:35.127Z,4.45
